Teec Nos Pos, Arizona
Current Conditions -  °F | °C
As of 8:53 AM on Tuesday 21 Oct 2014 (Local Time) from KCEZ Reporting Station
Clear Clear  
Wind Chill: 57°   Ceiling: Unl
Heat Index: 57°   Visibility: 10mi
Dew Point: 43°   Wind: 0mph
Humidity: 59%   Direction: NA
Pressure: 30.15"   Gusts: NA
Location:  36.91°N, 109.1°W
Report Text: KCEZ 211453Z AUTO 00000KT 10SM CLR 14/06 A3015 RMK AO2 SLP159 T01390061 53006
Loading
Personal Weather Stations






























Interactive Weather Map
Tropical Storm Tracking
New forecast layout! Learn more

10-Day Weather Forecast

Advertisements
Track Severe Weather on mobile